Time;durP1;ratioP1;P1;durP2;ratioP2;P2;SDS_P1;SDS_P2;PMS_P1;PMS_P2;Temp;Humidity;BMP_temperature;BMP_pressure;BME280_temperature;BME280_humidity;BME280_pressure;Samples;Min_cycle;Max_cycle;Signal;HPM_P1;HPM_P2
2022/11/13 00:00:42;;;;;;;2.85;2.10;;;9.40;99.90;;;;;;6364227;28;20261;-67
2022/11/13 00:04:06;;;;;;;3.90;2.30;;;9.30;99.90;;;;;;6362986;28;20471;-67
2022/11/13 00:07:29;;;;;;;2.40;2.00;;;9.20;99.90;;;;;;6363678;28;20269;-67
2022/11/13 00:10:53;;;;;;;3.65;1.98;;;9.30;99.90;;;;;;6364091;28;20262;-67
2022/11/13 00:14:18;;;;;;;3.53;2.00;;;9.30;99.90;;;;;;6363508;28;20320;-67
2022/11/13 00:17:41;;;;;;;3.78;1.83;;;9.30;99.90;;;;;;6363258;28;20586;-67
2022/11/13 00:21:06;;;;;;;3.25;2.25;;;9.30;99.90;;;;;;6363888;28;20266;-67
2022/11/13 00:24:30;;;;;;;2.10;1.90;;;9.20;99.90;;;;;;6363120;28;20301;-67
2022/11/13 00:27:53;;;;;;;3.05;2.10;;;9.20;99.90;;;;;;6362693;28;20300;-67
2022/11/13 00:31:18;;;;;;;3.40;2.30;;;9.20;99.90;;;;;;6363240;28;20269;-67
2022/11/13 00:34:42;;;;;;;3.17;1.83;;;9.10;99.90;;;;;;6362505;28;20297;-67
2022/11/13 00:38:15;;;;;;;1.60;1.50;;;8.90;99.90;;;;;;6362947;28;20297;-67
2022/11/13 00:41:39;;;;;;;2.05;1.95;;;8.90;99.90;;;;;;6363290;28;20270;-67
2022/11/13 00:45:02;;;;;;;3.53;2.00;;;9.00;99.90;;;;;;6362226;28;20289;-67
2022/11/13 00:48:27;;;;;;;2.83;2.13;;;9.00;99.90;;;;;;6362566;28;20297;-68
2022/11/13 00:51:52;;;;;;;3.30;2.15;;;8.90;99.90;;;;;;6362710;28;20265;-68
2022/11/13 00:55:16;;;;;;;3.25;2.15;;;8.90;99.90;;;;;;6361684;28;20449;-67
2022/11/13 00:58:40;;;;;;;2.30;2.20;;;8.90;99.90;;;;;;6362058;28;20305;-67
2022/11/13 01:02:03;;;;;;;3.00;2.28;;;8.90;99.90;;;;;;6362809;28;20266;-68
2022/11/13 01:05:28;;;;;;;2.83;2.40;;;8.90;99.90;;;;;;6362035;28;20273;-68
2022/11/13 01:08:54;;;;;;;2.47;2.10;;;8.90;99.90;;;;;;6361921;28;20298;-67
2022/11/13 01:12:18;;;;;;;4.47;2.28;;;8.80;99.90;;;;;;6386104;27;20261;-68
2022/11/13 01:15:42;;;;;;;2.17;1.90;;;8.90;99.90;;;;;;6386547;27;20449;-66
2022/11/13 01:19:06;;;;;;;2.05;1.95;;;8.80;99.90;;;;;;6387175;27;20469;-67
2022/11/13 01:22:31;;;;;;;3.22;2.10;;;8.80;99.90;;;;;;6386741;27;20300;-67
2022/11/13 01:25:55;;;;;;;5.13;2.30;;;8.80;99.90;;;;;;6387203;27;20547;-67
2022/11/13 01:29:20;;;;;;;6.15;2.35;;;8.80;99.90;;;;;;6386804;27;20576;-68
2022/11/13 01:32:44;;;;;;;3.15;2.72;;;8.70;99.90;;;;;;6386711;27;20297;-67
2022/11/13 01:36:13;;;;;;;2.70;2.45;;;8.70;99.90;;;;;;6387317;27;20536;-67
2022/11/13 01:39:39;;;;;;;4.22;2.10;;;8.70;99.90;;;;;;6386671;27;20611;-67
2022/11/13 01:43:20;;;;;;;1.92;1.83;;;8.60;99.90;;;;;;6386546;27;20605;-67
2022/11/13 01:46:45;;;;;;;3.42;2.05;;;8.70;99.90;;;;;;6386865;27;20288;-67
2022/11/13 01:50:13;;;;;;;2.97;2.42;;;8.60;99.90;;;;;;6385813;27;20288;-67
2022/11/13 01:53:37;;;;;;;1.92;1.83;;;8.60;99.90;;;;;;6386274;27;20292;-67
2022/11/13 01:57:03;;;;;;;2.13;2.00;;;8.60;99.90;;;;;;6387101;27;20539;-68
2022/11/13 02:00:28;;;;;;;3.42;2.40;;;8.50;99.90;;;;;;6386410;27;20584;-68
2022/11/13 02:03:51;;;;;;;5.43;2.50;;;8.30;99.90;;;;;;6386365;27;20558;-67
2022/11/13 02:07:16;;;;;;;2.53;2.30;;;8.30;99.90;;;;;;6386251;27;20264;-69
2022/11/13 02:10:40;;;;;;;3.42;2.42;;;8.40;99.90;;;;;;6376772;27;20257;-67
2022/11/13 02:14:05;;;;;;;3.83;2.65;;;8.30;99.90;;;;;;6360921;28;20293;-68
2022/11/13 02:17:33;;;;;;;2.55;2.35;;;8.30;99.90;;;;;;6360874;28;20305;-67
2022/11/13 02:21:06;;;;;;;2.42;2.33;;;8.30;99.90;;;;;;6361405;28;20285;-68
2022/11/13 02:24:34;;;;;;;5.60;3.33;;;8.20;99.90;;;;;;6360850;28;20292;-67
2022/11/13 02:28:00;;;;;;;3.38;2.00;;;8.30;99.90;;;;;;6363565;28;20313;-67
2022/11/13 02:31:24;;;;;;;3.28;2.10;;;8.30;99.90;;;;;;6366168;28;20277;-67
2022/11/13 02:34:48;;;;;;;3.60;2.30;;;8.40;99.90;;;;;;6366002;28;20297;-67
2022/11/13 02:38:15;;;;;;;4.45;2.35;;;8.40;99.90;;;;;;6366011;28;20295;-68
2022/11/13 02:41:40;;;;;;;3.13;2.00;;;8.40;99.90;;;;;;6365999;28;20266;-68
2022/11/13 02:45:06;;;;;;;3.20;1.90;;;8.40;99.90;;;;;;6365636;28;20297;-67
2022/11/13 02:48:30;;;;;;;2.70;2.20;;;8.40;99.90;;;;;;6358691;28;20293;-68
2022/11/13 02:51:54;;;;;;;3.60;1.90;;;8.40;99.90;;;;;;6365863;28;20269;-67
2022/11/13 02:55:19;;;;;;;2.83;2.00;;;8.40;99.90;;;;;;6365011;28;20422;-67
2022/11/13 02:58:44;;;;;;;3.92;2.72;;;8.40;99.90;;;;;;6374783;27;20300;-67
2022/11/13 03:02:08;;;;;;;2.13;1.85;;;8.40;99.90;;;;;;6390930;27;20260;-67
2022/11/13 03:05:31;;;;;;;3.10;1.90;;;8.20;99.90;;;;;;6390420;27;20260;-66
2022/11/13 03:08:55;;;;;;;3.10;2.38;;;8.20;99.90;;;;;;6390680;27;20301;-67
2022/11/13 03:12:18;;;;;;;3.28;1.77;;;8.10;99.90;;;;;;6390520;27;20261;-67
2022/11/13 03:15:44;;;;;;;7.35;1.90;;;8.10;99.90;;;;;;6391045;27;20270;-67
2022/11/13 03:19:07;;;;;;;1.88;1.77;;;8.10;99.90;;;;;;6390599;27;20372;-67
2022/11/13 03:22:31;;;;;;;3.22;1.60;;;8.30;99.90;;;;;;6390070;27;20616;-67
2022/11/13 03:25:54;;;;;;;1.83;1.80;;;8.30;99.90;;;;;;6390333;27;20269;-66
2022/11/13 03:29:18;;;;;;;3.22;1.90;;;8.30;99.90;;;;;;6389975;27;20289;-67
2022/11/13 03:32:44;;;;;;;2.40;1.70;;;8.30;99.90;;;;;;6389733;27;20293;-66
2022/11/13 03:36:09;;;;;;;1.65;1.65;;;8.30;99.90;;;;;;6390510;27;20340;-66
2022/11/13 03:39:32;;;;;;;1.95;1.85;;;8.20;99.90;;;;;;6388767;27;20296;-66
2022/11/13 03:42:55;;;;;;;2.03;1.90;;;8.30;99.90;;;;;;6389703;27;20288;-66
2022/11/13 03:46:18;;;;;;;3.95;1.80;;;8.30;99.90;;;;;;6389909;27;20264;-67
2022/11/13 03:49:44;;;;;;;3.08;1.88;;;8.20;99.90;;;;;;6389524;27;20292;-66
2022/11/13 03:53:07;;;;;;;1.98;1.88;;;8.20;99.90;;;;;;6389323;27;20309;-67
2022/11/13 03:56:31;;;;;;;1.98;1.88;;;8.20;99.90;;;;;;6390014;27;20269;-67
2022/11/13 03:59:54;;;;;;;3.78;1.92;;;8.10;99.90;;;;;;6389474;27;20320;-66
2022/11/13 04:03:20;;;;;;;2.05;1.95;;;8.10;99.90;;;;;;6378092;27;20588;-67
2022/11/13 04:06:45;;;;;;;3.65;1.88;;;8.10;99.90;;;;;;6389442;27;20256;-67
2022/11/13 04:10:10;;;;;;;1.83;1.67;;;8.10;99.90;;;;;;6388360;27;20433;-67
2022/11/13 04:13:33;;;;;;;2.05;1.52;;;8.10;99.90;;;;;;6388991;27;20433;-68
2022/11/13 04:16:57;;;;;;;4.03;1.80;;;8.10;99.90;;;;;;6388582;27;20260;-68
2022/11/13 04:20:19;;;;;;;1.65;1.60;;;8.10;99.90;;;;;;6389469;27;20269;-67
2022/11/13 04:23:45;;;;;;;5.60;2.17;;;8.00;99.90;;;;;;6388824;27;20297;-67
2022/11/13 04:27:08;;;;;;;1.80;1.70;;;8.00;99.90;;;;;;6388845;27;20260;-67
2022/11/13 04:30:32;;;;;;;3.80;1.70;;;8.00;99.90;;;;;;6388697;27;20293;-67
2022/11/13 04:33:55;;;;;;;7.07;1.88;;;8.00;99.90;;;;;;6388131;27;20288;-67
2022/11/13 04:37:18;;;;;;;3.28;1.60;;;8.00;99.90;;;;;;6388438;27;20288;-67
2022/11/13 04:40:43;;;;;;;4.15;1.92;;;8.00;99.90;;;;;;6389057;27;20269;-68
2022/11/13 04:44:06;;;;;;;2.38;1.70;;;8.00;99.90;;;;;;6388518;27;20469;-67
2022/11/13 04:47:29;;;;;;;3.05;1.73;;;7.80;99.90;;;;;;6388393;27;20284;-68
2022/11/13 04:50:52;;;;;;;1.75;1.65;;;7.90;99.90;;;;;;6388555;27;20457;-67
2022/11/13 04:54:15;;;;;;;1.73;1.73;;;7.80;99.90;;;;;;6387974;27;20297;-68
2022/11/13 04:57:41;;;;;;;2.28;2.05;;;7.80;99.90;;;;;;6387623;27;20288;-67
2022/11/13 05:01:05;;;;;;;2.10;1.92;;;7.70;99.90;;;;;;6388500;27;20425;-67
2022/11/13 05:04:29;;;;;;;4.13;2.10;;;7.80;99.90;;;;;;6387943;27;20292;-68
2022/11/13 05:07:53;;;;;;;1.90;1.80;;;7.80;99.90;;;;;;6387817;27;20292;-67
2022/11/13 05:11:16;;;;;;;1.85;1.75;;;7.90;99.90;;;;;;6388116;27;20483;-67
2022/11/13 05:14:41;;;;;;;2.40;1.92;;;7.80;99.90;;;;;;6387019;27;20292;-67
2022/11/13 05:18:07;;;;;;;2.85;1.88;;;7.80;99.90;;;;;;6387945;27;20313;-67
2022/11/13 05:21:30;;;;;;;4.55;2.20;;;7.80;99.90;;;;;;6387670;27;20272;-68
2022/11/13 05:24:53;;;;;;;1.92;1.85;;;7.80;99.90;;;;;;6387438;27;20293;-67
2022/11/13 05:28:31;;;;;;;2.05;1.85;;;7.70;99.90;;;;;;6387248;27;20287;-67
2022/11/13 05:31:56;;;;;;;1.92;1.92;;;7.70;99.90;;;;;;6387076;27;20284;-67
2022/11/13 05:35:20;;;;;;;2.38;2.30;;;7.70;99.90;;;;;;6387465;27;20268;-67
2022/11/13 05:38:44;;;;;;;2.00;1.90;;;7.70;99.90;;;;;;6387159;27;20467;-66
2022/11/13 05:42:08;;;;;;;2.20;2.00;;;7.60;99.90;;;;;;6387080;27;20272;-68
2022/11/13 05:45:31;;;;;;;2.10;2.00;;;7.60;99.90;;;;;;6387190;27;20565;-68
2022/11/13 05:48:58;;;;;;;1.85;1.75;;;7.70;99.90;;;;;;6386665;27;20304;-68
2022/11/13 05:52:22;;;;;;;2.08;1.98;;;7.70;99.90;;;;;;6386842;27;20292;-69
2022/11/13 05:55:45;;;;;;;2.55;1.85;;;7.70;99.90;;;;;;6387435;27;20265;-67
2022/11/13 05:59:09;;;;;;;2.47;2.10;;;7.80;99.90;;;;;;6386448;27;20308;-67
2022/11/13 06:02:32;;;;;;;3.05;2.05;;;7.80;99.90;;;;;;6385965;27;20280;-67
2022/11/13 06:05:58;;;;;;;2.13;2.13;;;7.60;99.90;;;;;;6387121;27;20541;-68
2022/11/13 06:09:22;;;;;;;2.95;2.13;;;7.50;99.90;;;;;;6386588;27;20284;-67
2022/11/13 06:12:46;;;;;;;2.10;2.00;;;7.60;99.90;;;;;;6360693;28;20301;-68
2022/11/13 06:16:14;;;;;;;2.53;2.25;;;7.40;99.90;;;;;;6361469;28;20536;-67
2022/11/13 06:19:39;;;;;;;2.78;2.05;;;7.40;99.90;;;;;;6360767;28;20296;-68
2022/11/13 06:23:03;;;;;;;2.45;2.25;;;7.40;99.90;;;;;;6360919;28;20289;-68
2022/11/13 06:26:29;;;;;;;2.63;2.43;;;7.40;99.90;;;;;;6361439;28;20442;-67
2022/11/13 06:29:52;;;;;;;3.20;2.87;;;7.30;99.90;;;;;;6360786;28;20294;-68
2022/11/13 06:33:16;;;;;;;2.70;2.50;;;7.00;99.90;;;;;;6360757;28;20297;-68
2022/11/13 06:36:39;;;;;;;2.70;2.60;;;7.10;99.90;;;;;;6361323;28;20265;-67
2022/11/13 06:40:07;;;;;;;3.38;2.85;;;7.20;99.90;;;;;;6360725;28;20454;-68
2022/11/13 06:43:31;;;;;;;4.93;2.60;;;7.20;99.90;;;;;;6360712;28;20297;-68
2022/11/13 06:46:54;;;;;;;3.67;3.07;;;6.90;99.90;;;;;;6360716;28;20273;-68
2022/11/13 06:50:17;;;;;;;5.68;2.88;;;7.00;99.90;;;;;;6360726;28;20265;-68
2022/11/13 06:53:42;;;;;;;10.93;3.00;;;7.10;99.90;;;;;;6360572;28;20309;-67
2022/11/13 06:57:07;;;;;;;3.73;3.00;;;7.00;99.90;;;;;;6360039;28;20270;-68
2022/11/13 07:00:32;;;;;;;3.17;2.88;;;7.10;99.90;;;;;;6360576;28;20604;-68
2022/11/13 07:04:01;;;;;;;3.25;2.97;;;7.20;99.90;;;;;;6359867;28;20293;-68
2022/11/13 07:07:25;;;;;;;3.17;2.85;;;6.90;99.90;;;;;;6360250;28;20301;-68
2022/11/13 07:10:54;;;;;;;3.13;2.92;;;7.00;99.90;;;;;;6372665;28;20256;-68
2022/11/13 07:14:20;;;;;;;3.75;2.50;;;7.10;99.90;;;;;;6388551;27;20480;-68
2022/11/13 07:17:43;;;;;;;2.97;2.78;;;6.80;99.90;;;;;;6390358;27;20296;-67
2022/11/13 07:21:09;;;;;;;3.67;3.30;;;6.70;99.90;;;;;;6390052;27;20269;-67
2022/11/13 07:24:33;;;;;;;2.97;2.88;;;6.70;99.90;;;;;;6390302;27;20288;-67
2022/11/13 07:27:57;;;;;;;4.45;3.13;;;6.80;99.90;;;;;;6390024;27;20301;-67
2022/11/13 07:31:22;;;;;;;5.18;3.00;;;6.70;99.90;;;;;;6390135;27;20477;-67
2022/11/13 07:34:46;;;;;;;4.40;2.70;;;6.90;99.90;;;;;;6389989;27;20296;-67
2022/11/13 07:38:13;;;;;;;2.85;2.65;;;7.10;99.90;;;;;;6389835;27;20613;-67
2022/11/13 07:41:36;;;;;;;5.65;2.65;;;7.00;99.90;;;;;;6389907;27;20449;-66
2022/11/13 07:44:59;;;;;;;3.33;2.60;;;7.10;99.90;;;;;;6389403;27;20273;-67
2022/11/13 07:48:26;;;;;;;4.60;2.63;;;7.10;99.90;;;;;;6389507;27;20296;-67
2022/11/13 07:51:50;;;;;;;7.22;2.78;;;7.10;99.90;;;;;;6389544;27;20289;-68
2022/11/13 07:55:15;;;;;;;3.42;2.33;;;7.20;99.90;;;;;;6388793;27;20268;-67
2022/11/13 07:58:38;;;;;;;3.10;2.90;;;7.30;99.90;;;;;;6389253;27;20597;-67
2022/11/13 08:02:03;;;;;;;4.35;2.92;;;7.30;99.90;;;;;;6388937;27;20269;-67
2022/11/13 08:05:27;;;;;;;2.92;2.60;;;7.40;99.90;;;;;;6389611;27;20265;-66
2022/11/13 08:08:51;;;;;;;3.72;2.40;;;7.40;99.90;;;;;;6389388;27;20292;-67
2022/11/13 08:12:14;;;;;;;5.50;2.38;;;7.40;99.90;;;;;;6380928;27;20305;-67
2022/11/13 08:15:38;;;;;;;5.65;2.60;;;7.50;99.90;;;;;;6389452;27;20276;-68
2022/11/13 08:19:02;;;;;;;2.83;2.63;;;7.40;99.90;;;;;;6389007;27;20293;-68
2022/11/13 08:22:28;;;;;;;2.75;2.53;;;7.40;99.90;;;;;;6389088;27;20292;-68
2022/11/13 08:25:51;;;;;;;2.67;2.47;;;7.40;99.90;;;;;;6389094;27;20276;-68
2022/11/13 08:29:14;;;;;;;4.85;2.80;;;7.50;99.90;;;;;;6388948;27;20292;-68
2022/11/13 08:32:38;;;;;;;3.15;2.70;;;7.60;99.90;;;;;;6388918;27;20296;-68
2022/11/13 08:36:01;;;;;;;3.33;2.50;;;7.70;99.90;;;;;;6389233;27;20260;-68
2022/11/13 08:39:26;;;;;;;3.10;2.90;;;7.70;99.90;;;;;;6388230;27;20296;-68
2022/11/13 08:42:49;;;;;;;4.90;2.92;;;7.70;99.90;;;;;;6388091;27;20297;-68
2022/11/13 08:46:13;;;;;;;4.55;3.03;;;7.80;99.90;;;;;;6389115;27;20269;-68
2022/11/13 08:49:38;;;;;;;4.03;3.10;;;7.80;99.90;;;;;;6388344;27;20293;-67
2022/11/13 08:53:01;;;;;;;3.08;2.83;;;7.80;99.90;;;;;;6388217;27;20296;-68
2022/11/13 08:56:26;;;;;;;5.15;3.05;;;7.80;99.90;;;;;;6388538;27;20446;-68
2022/11/13 08:59:49;;;;;;;3.00;2.85;;;7.70;99.90;;;;;;6388072;27;20296;-67
2022/11/13 09:03:15;;;;;;;3.70;3.22;;;7.70;99.90;;;;;;6387943;27;20480;-67
2022/11/13 09:06:39;;;;;;;5.45;3.55;;;7.70;99.90;;;;;;6388438;27;20273;-67
2022/11/13 09:10:03;;;;;;;4.93;3.63;;;7.60;99.90;;;;;;6386740;27;20265;-67
2022/11/13 09:13:28;;;;;;;9.02;3.47;;;7.60;99.90;;;;;;6387654;27;20293;-67
2022/11/13 09:16:52;;;;;;;6.13;3.90;;;7.70;99.90;;;;;;6388209;27;20446;-67
2022/11/13 09:20:16;;;;;;;8.05;3.35;;;7.80;99.90;;;;;;6387103;27;20272;-66
2022/11/13 09:23:45;;;;;;;5.22;3.60;;;7.80;99.90;;;;;;6387396;27;20557;-67
2022/11/13 09:27:09;;;;;;;4.22;3.20;;;7.90;99.90;;;;;;6387257;27;20260;-67
2022/11/13 09:30:34;;;;;;;5.85;3.55;;;8.00;99.90;;;;;;6387907;27;20276;-66
2022/11/13 09:33:58;;;;;;;4.35;3.60;;;8.00;99.90;;;;;;6387162;27;20586;-66
2022/11/13 09:37:21;;;;;;;4.60;3.50;;;8.00;99.90;;;;;;6386128;27;20299;-66
2022/11/13 09:40:52;;;;;;;4.68;3.20;;;7.90;99.90;;;;;;6387759;27;20541;-66
2022/11/13 09:44:34;;;;;;;10.40;4.55;;;8.00;99.90;;;;;;6386955;27;20296;-66
2022/11/13 09:48:09;;;;;;;14.30;3.80;;;8.00;99.90;;;;;;6386530;27;20588;-66
2022/11/13 09:51:37;;;;;;;5.00;3.60;;;8.00;99.90;;;;;;6387298;27;20280;-67
2022/11/13 09:55:00;;;;;;;4.60;3.80;;;8.00;99.90;;;;;;6385984;27;20280;-67
2022/11/13 09:58:46;;;;;;;4.28;3.97;;;8.00;99.90;;;;;;6386755;27;20308;-67
2022/11/13 10:02:21;;;;;;;4.97;3.80;;;7.90;99.90;;;;;;6386253;27;20389;-67
2022/11/13 10:05:54;;;;;;;7.95;3.75;;;8.00;99.90;;;;;;6386863;27;20265;-67
2022/11/13 10:09:26;;;;;;;5.97;3.45;;;8.00;99.90;;;;;;6386712;27;20292;-67
2022/11/13 10:12:52;;;;;;;4.35;3.88;;;8.00;99.90;;;;;;6356373;28;20297;-67
2022/11/13 10:16:31;;;;;;;6.30;4.18;;;8.10;99.90;;;;;;6361044;28;20448;-67
2022/11/13 10:19:59;;;;;;;4.50;4.10;;;8.20;99.90;;;;;;6360304;28;20557;-67
2022/11/13 10:23:29;;;;;;;8.98;3.67;;;8.30;99.90;;;;;;6360785;28;20320;-67
2022/11/13 10:26:55;;;;;;;4.10;3.70;;;8.30;99.90;;;;;;6361256;28;20269;-66
2022/11/13 10:30:19;;;;;;;9.27;3.75;;;8.40;99.90;;;;;;6352123;28;20269;-67
2022/11/13 10:33:43;;;;;;;10.85;4.60;;;8.40;99.90;;;;;;6360618;28;20297;-67
2022/11/13 10:37:27;;;;;;;5.15;3.75;;;8.40;99.90;;;;;;6360389;28;20261;-66
2022/11/13 10:40:53;;;;;;;6.57;3.92;;;8.40;99.90;;;;;;6360742;28;20280;-67
2022/11/13 10:44:29;;;;;;;6.78;3.90;;;8.50;99.90;;;;;;6360401;28;20306;-67
2022/11/13 10:47:53;;;;;;;5.50;4.15;;;8.50;99.90;;;;;;6361596;28;20292;-67
2022/11/13 10:51:28;;;;;;;7.10;4.03;;;8.50;99.90;;;;;;6358926;28;20269;-67
2022/11/13 10:55:16;;;;;;;3.42;3.33;;;8.50;99.90;;;;;;6365509;28;20293;-67
2022/11/13 10:58:41;;;;;;;3.53;3.25;;;8.50;99.90;;;;;;6365439;28;20306;-67
2022/11/13 11:02:16;;;;;;;3.72;3.40;;;8.50;99.90;;;;;;6365422;28;20269;-67
2022/11/13 11:05:40;;;;;;;8.18;3.50;;;8.60;99.90;;;;;;6365471;28;20269;-67
2022/11/13 11:09:16;;;;;;;3.55;3.30;;;8.70;99.90;;;;;;6364724;28;20292;-67
2022/11/13 11:12:40;;;;;;;3.30;3.05;;;8.70;99.90;;;;;;6364888;28;20488;-68
2022/11/13 11:16:06;;;;;;;3.88;2.78;;;8.70;99.90;;;;;;6365268;28;20270;-68
2022/11/13 11:19:34;;;;;;;5.90;2.78;;;8.70;99.90;;;;;;6364860;28;20461;-67
2022/11/13 11:23:02;;;;;;;8.80;2.45;;;8.80;99.90;;;;;;6364785;28;20293;-67
2022/11/13 11:26:31;;;;;;;2.42;2.03;;;9.00;99.90;;;;;;6365168;28;20274;-67
2022/11/13 11:30:05;;;;;;;7.57;2.25;;;9.10;99.90;;;;;;6363519;28;20261;-67
2022/11/13 11:33:35;;;;;;;5.00;2.25;;;9.10;99.90;;;;;;6364428;28;20290;-66
2022/11/13 11:37:06;;;;;;;6.82;1.67;;;9.10;99.90;;;;;;6364096;28;20270;-67
2022/11/13 11:40:33;;;;;;;4.82;2.15;;;9.20;99.90;;;;;;6364158;28;20269;-68
2022/11/13 11:44:04;;;;;;;2.25;1.63;;;9.30;99.90;;;;;;6363831;28;20296;-68
2022/11/13 11:47:28;;;;;;;2.45;1.60;;;9.40;99.90;;;;;;6356971;28;20285;-68
2022/11/13 11:51:02;;;;;;;4.10;2.55;;;9.40;99.90;;;;;;6363868;28;20261;-68
2022/11/13 11:54:37;;;;;;;1.73;1.55;;;9.50;99.90;;;;;;6363714;28;20301;-67
2022/11/13 11:58:16;;;;;;;2.40;1.80;;;9.50;99.90;;;;;;6363833;28;20490;-67
2022/11/13 12:02:08;;;;;;;5.63;2.03;;;9.60;99.90;;;;;;6362600;28;20552;-67
2022/11/13 12:05:43;;;;;;;6.75;1.88;;;9.60;99.90;;;;;;6362726;28;20269;-67
2022/11/13 12:09:17;;;;;;;5.03;1.90;;;9.60;99.90;;;;;;6364030;28;20297;-68
2022/11/13 12:12:57;;;;;;;4.55;1.67;;;9.70;99.90;;;;;;6357888;28;20297;-68
2022/11/13 12:16:30;;;;;;;6.75;1.83;;;9.70;99.90;;;;;;6363812;28;20285;-66
2022/11/13 12:20:01;;;;;;;8.85;2.00;;;9.60;99.90;;;;;;6363132;28;20289;-66
2022/11/13 12:23:38;;;;;;;4.50;1.90;;;9.60;99.90;;;;;;6363352;28;20297;-67
2022/11/13 12:27:18;;;;;;;8.52;2.60;;;9.50;99.90;;;;;;6363048;28;20272;-68
2022/11/13 12:30:52;;;;;;;4.75;2.05;;;9.60;99.90;;;;;;6363701;28;20265;-67
2022/11/13 12:34:28;;;;;;;6.38;2.10;;;9.50;99.90;;;;;;6363072;28;20296;-67
2022/11/13 12:37:55;;;;;;;10.13;2.40;;;9.50;99.90;;;;;;6363041;28;20293;-67
2022/11/13 12:41:29;;;;;;;6.38;2.28;;;9.50;99.90;;;;;;6363413;28;20317;-67
2022/11/13 12:45:01;;;;;;;4.78;1.98;;;9.50;99.90;;;;;;6362587;28;20297;-67
2022/11/13 12:48:34;;;;;;;6.22;2.00;;;9.50;99.90;;;;;;6362694;28;20488;-67
2022/11/13 12:52:00;;;;;;;2.45;1.98;;;9.50;99.90;;;;;;6362794;28;20269;-67
2022/11/13 12:55:28;;;;;;;5.45;2.22;;;9.60;99.90;;;;;;6363023;28;20467;-67
2022/11/13 12:59:00;;;;;;;6.15;2.38;;;9.60;99.90;;;;;;6362177;28;20504;-67
2022/11/13 13:03:00;;;;;;;5.55;1.88;;;9.50;99.90;;;;;;6361955;28;20285;-67
2022/11/13 13:06:43;;;;;;;9.10;2.25;;;9.50;99.90;;;;;;6362834;28;20276;-67
2022/11/13 13:10:16;;;;;;;6.63;1.90;;;9.50;99.90;;;;;;6367487;27;20261;-66
2022/11/13 13:13:47;;;;;;;8.00;2.60;;;9.50;99.90;;;;;;6387639;27;20580;-68
2022/11/13 13:17:20;;;;;;;9.05;2.00;;;9.40;99.90;;;;;;6387622;27;20264;-67
2022/11/13 13:21:03;;;;;;;5.57;1.92;;;9.40;99.90;;;;;;6387932;27;20269;-67
2022/11/13 13:24:33;;;;;;;5.32;2.30;;;9.40;99.90;;;;;;6387510;27;20293;-67
2022/11/13 13:27:58;;;;;;;4.18;2.05;;;9.40;99.90;;;;;;6387195;27;20292;-68
2022/11/13 13:31:36;;;;;;;9.70;2.20;;;9.50;99.90;;;;;;6387649;27;20273;-66
2022/11/13 13:35:08;;;;;;;4.63;2.20;;;9.50;99.90;;;;;;6386350;27;20304;-67
2022/11/13 13:38:37;;;;;;;4.30;2.05;;;9.50;99.90;;;;;;6386795;27;20639;-67
2022/11/13 13:42:16;;;;;;;9.70;2.58;;;9.50;99.90;;;;;;6386756;27;20264;-67
2022/11/13 13:45:49;;;;;;;3.55;2.42;;;9.40;99.90;;;;;;6387383;27;20277;-67
2022/11/13 13:49:15;;;;;;;8.23;2.72;;;9.40;99.90;;;;;;6386695;27;20481;-66
2022/11/13 13:52:39;;;;;;;6.78;3.03;;;9.30;99.90;;;;;;6381059;27;20292;-68
2022/11/13 13:56:05;;;;;;;3.65;2.50;;;9.20;99.90;;;;;;6387357;27;20280;-68
2022/11/13 13:59:33;;;;;;;4.18;2.40;;;9.30;99.90;;;;;;6386781;27;20300;-67
2022/11/13 14:02:56;;;;;;;4.07;2.40;;;9.30;99.90;;;;;;6386623;27;20292;-67
2022/11/13 14:06:22;;;;;;;9.95;2.53;;;9.20;99.90;;;;;;6386591;27;20268;-67
2022/11/13 14:09:46;;;;;;;11.23;2.72;;;9.20;99.90;;;;;;6383362;27;20609;-67
2022/11/13 14:13:14;;;;;;;6.03;2.63;;;9.10;99.90;;;;;;6385517;27;20300;-68
2022/11/13 14:16:49;;;;;;;8.77;3.17;;;9.10;99.90;;;;;;6386785;27;20283;-68
2022/11/13 14:20:15;;;;;;;6.07;2.53;;;9.10;99.90;;;;;;6385792;27;20268;-67
2022/11/13 14:23:42;;;;;;;11.30;3.03;;;9.10;99.90;;;;;;6385970;27;20309;-68
2022/11/13 14:27:08;;;;;;;2.97;2.60;;;9.10;99.90;;;;;;6386199;27;20268;-68
2022/11/13 14:30:33;;;;;;;3.05;2.60;;;9.10;99.90;;;;;;6386506;28;20450;-68
2022/11/13 14:33:59;;;;;;;9.32;2.83;;;9.00;99.90;;;;;;6386396;27;20292;-67
2022/11/13 14:37:26;;;;;;;5.32;2.85;;;9.00;99.90;;;;;;6386710;27;20573;-67
2022/11/13 14:40:50;;;;;;;7.72;3.05;;;8.90;99.90;;;;;;6387104;28;20268;-67
2022/11/13 14:44:13;;;;;;;13.20;5.05;;;8.80;99.90;;;;;;6386154;27;20626;-67
2022/11/13 14:47:38;;;;;;;7.63;3.05;;;8.90;99.90;;;;;;6385637;28;20296;-68
2022/11/13 14:51:04;;;;;;;3.53;3.17;;;8.90;99.90;;;;;;6386328;28;20294;-68
2022/11/13 14:54:31;;;;;;;8.63;3.90;;;8.90;99.90;;;;;;6386073;28;20592;-68
2022/11/13 14:58:25;;;;;;;5.10;3.30;;;8.90;99.90;;;;;;6385589;28;20487;-67
2022/11/13 15:01:54;;;;;;;6.53;3.63;;;8.80;99.90;;;;;;6385880;28;20272;-67
2022/11/13 15:05:19;;;;;;;7.00;3.63;;;8.80;99.90;;;;;;6385482;28;20268;-66
2022/11/13 15:08:43;;;;;;;6.93;3.17;;;8.80;99.90;;;;;;6385664;28;20538;-68
2022/11/13 15:12:10;;;;;;;6.75;2.88;;;8.80;99.90;;;;;;6377858;27;20436;-68
2022/11/13 15:15:33;;;;;;;8.05;3.33;;;8.80;99.90;;;;;;6385771;28;20272;-67
2022/11/13 15:19:04;;;;;;;4.53;3.42;;;8.70;99.90;;;;;;6385977;27;20576;-67
2022/11/13 15:22:29;;;;;;;8.82;3.50;;;8.70;99.90;;;;;;6385806;27;20518;-67
2022/11/13 15:25:52;;;;;;;4.47;3.15;;;8.60;99.90;;;;;;6385861;28;20556;-67
2022/11/13 15:29:15;;;;;;;9.60;3.70;;;8.60;99.90;;;;;;6385669;27;20292;-67
2022/11/13 15:32:39;;;;;;;9.23;3.33;;;8.60;99.90;;;;;;6385433;27;20289;-67
2022/11/13 15:36:03;;;;;;;10.48;4.00;;;8.50;99.90;;;;;;6388546;27;20288;-66
2022/11/13 15:39:28;;;;;;;13.40;4.30;;;8.40;99.90;;;;;;6390204;27;20295;-67
2022/11/13 15:42:51;;;;;;;9.23;4.78;;;8.40;99.90;;;;;;6389972;27;20482;-67
2022/11/13 15:46:16;;;;;;;8.32;4.10;;;8.40;99.90;;;;;;6390193;27;20264;-66
2022/11/13 15:49:40;;;;;;;8.18;3.42;;;8.40;99.90;;;;;;6389558;27;20292;-66
2022/11/13 15:53:23;;;;;;;6.78;3.03;;;8.30;99.90;;;;;;6389686;27;20292;-67
2022/11/13 15:56:48;;;;;;;16.13;4.13;;;8.30;99.90;;;;;;6390037;27;20301;-67
2022/11/13 16:00:15;;;;;;;7.35;3.78;;;8.30;99.90;;;;;;6388899;27;20293;-67
2022/11/13 16:03:39;;;;;;;9.63;4.28;;;8.30;99.90;;;;;;6389503;27;20284;-66
2022/11/13 16:07:02;;;;;;;8.60;4.80;;;8.30;99.90;;;;;;6389389;27;20277;-67
2022/11/13 16:10:26;;;;;;;7.18;4.10;;;8.20;99.90;;;;;;6390086;27;20261;-66
2022/11/13 16:13:50;;;;;;;11.50;4.18;;;8.20;99.90;;;;;;6389202;27;20297;-67
2022/11/13 16:17:18;;;;;;;9.95;4.20;;;8.20;99.90;;;;;;6388934;27;20285;-67
2022/11/13 16:20:43;;;;;;;12.45;4.00;;;8.10;99.90;;;;;;6384405;27;20260;-67
2022/11/13 16:24:08;;;;;;;11.20;4.07;;;8.10;99.90;;;;;;6388965;27;20295;-67
2022/11/13 16:27:33;;;;;;;8.55;3.95;;;8.00;99.90;;;;;;6388742;27;20415;-67
2022/11/13 16:30:58;;;;;;;11.43;3.85;;;8.00;99.90;;;;;;6388763;27;20260;-67
2022/11/13 16:34:22;;;;;;;7.47;3.63;;;8.00;99.90;;;;;;6388250;27;20292;-67
2022/11/13 16:37:45;;;;;;;5.40;3.28;;;8.00;99.90;;;;;;6388538;27;20297;-67
2022/11/13 16:41:11;;;;;;;14.38;3.60;;;8.00;99.90;;;;;;6388591;27;20269;-67
2022/11/13 16:44:34;;;;;;;4.90;3.35;;;8.00;99.90;;;;;;6387860;27;20304;-67
2022/11/13 16:47:59;;;;;;;5.50;3.63;;;8.00;99.90;;;;;;6387689;27;20300;-67
2022/11/13 16:51:23;;;;;;;4.70;3.72;;;8.00;99.90;;;;;;6388246;27;20313;-66
2022/11/13 16:54:46;;;;;;;9.38;4.28;;;7.90;99.90;;;;;;6388054;27;20288;-67
2022/11/13 16:58:14;;;;;;;10.07;4.60;;;7.70;99.90;;;;;;6387328;27;20470;-66
2022/11/13 17:01:37;;;;;;;13.68;4.35;;;7.80;99.90;;;;;;6388229;27;20284;-66
2022/11/13 17:05:02;;;;;;;8.20;3.80;;;7.80;99.90;;;;;;6387468;27;20273;-66
2022/11/13 17:08:25;;;;;;;9.38;3.92;;;7.80;99.90;;;;;;6387636;27;20405;-67
2022/11/13 17:11:49;;;;;;;5.65;4.10;;;7.80;99.90;;;;;;6380378;27;20261;-67
2022/11/13 17:15:13;;;;;;;8.02;4.00;;;7.80;99.90;;;;;;6387101;27;20269;-67
2022/11/13 17:18:36;;;;;;;3.80;3.40;;;7.80;99.90;;;;;;6387918;27;20292;-67
2022/11/13 17:22:02;;;;;;;9.63;3.83;;;7.80;99.90;;;;;;6387756;27;20260;-68
2022/11/13 17:25:26;;;;;;;11.02;3.85;;;7.70;99.90;;;;;;6388296;27;20260;-67
2022/11/13 17:28:50;;;;;;;10.32;3.47;;;7.70;99.90;;;;;;6387717;27;20608;-67
2022/11/13 17:32:14;;;;;;;7.57;3.75;;;7.70;99.90;;;;;;6387739;27;20569;-68
2022/11/13 17:35:37;;;;;;;9.25;3.53;;;7.60;99.90;;;;;;6388057;27;20417;-68
2022/11/13 17:39:02;;;;;;;9.35;4.05;;;7.60;99.90;;;;;;6387035;27;20304;-67
2022/11/13 17:42:27;;;;;;;10.93;4.68;;;7.60;99.90;;;;;;6386774;27;20292;-66
2022/11/13 17:45:52;;;;;;;10.63;4.25;;;7.50;99.90;;;;;;6387343;27;20261;-67
2022/11/13 17:49:16;;;;;;;12.95;5.00;;;7.40;99.90;;;;;;6359880;28;20269;-67
2022/11/13 17:52:40;;;;;;;7.47;4.50;;;7.50;99.90;;;;;;6361231;28;20297;-69
2022/11/13 17:56:07;;;;;;;10.02;5.30;;;7.50;99.90;;;;;;6361479;28;20261;-69
2022/11/13 17:59:30;;;;;;;11.80;5.32;;;7.50;99.90;;;;;;6359327;28;20301;-69
2022/11/13 18:02:56;;;;;;;8.48;4.70;;;7.50;99.90;;;;;;6360832;28;20290;-68
2022/11/13 18:06:20;;;;;;;8.98;4.80;;;7.40;99.90;;;;;;6361126;28;20309;-67